sensor_id;sensor_type;location;lat;lon;timestamp;temperature;humidity
42489;DHT22;28118;52.388;9.452;2022-07-17T00:01:48;11.40;99.90
42489;DHT22;28118;52.388;9.452;2022-07-17T00:04:15;11.40;99.90
42489;DHT22;28118;52.388;9.452;2022-07-17T00:06:42;11.30;99.90
42489;DHT22;28118;52.388;9.452;2022-07-17T00:09:08;11.30;99.90
42489;DHT22;28118;52.388;9.452;2022-07-17T00:11:36;11.30;99.90
42489;DHT22;28118;52.388;9.452;2022-07-17T00:14:03;11.20;99.90
42489;DHT22;28118;52.388;9.452;2022-07-17T00:16:29;11.20;99.90
42489;DHT22;28118;52.388;9.452;2022-07-17T00:18:56;11.10;99.90
42489;DHT22;28118;52.388;9.452;2022-07-17T00:21:24;11.00;99.90
42489;DHT22;28118;52.388;9.452;2022-07-17T00:23:50;11.00;99.90
42489;DHT22;28118;52.388;9.452;2022-07-17T00:26:17;11.00;99.90
42489;DHT22;28118;52.388;9.452;2022-07-17T00:28:44;10.90;99.90
42489;DHT22;28118;52.388;9.452;2022-07-17T00:31:11;10.90;99.90
42489;DHT22;28118;52.388;9.452;2022-07-17T00:33:38;10.80;99.90
42489;DHT22;28118;52.388;9.452;2022-07-17T00:36:05;10.90;99.90
42489;DHT22;28118;52.388;9.452;2022-07-17T00:38:32;10.90;99.90
42489;DHT22;28118;52.388;9.452;2022-07-17T00:40:59;10.90;99.90
42489;DHT22;28118;52.388;9.452;2022-07-17T00:43:26;10.90;99.90
42489;DHT22;28118;52.388;9.452;2022-07-17T00:46:01;10.90;99.90
42489;DHT22;28118;52.388;9.452;2022-07-17T00:48:31;11.00;99.90
42489;DHT22;28118;52.388;9.452;2022-07-17T00:50:58;10.90;99.90
42489;DHT22;28118;52.388;9.452;2022-07-17T00:53:26;10.90;99.90
42489;DHT22;28118;52.388;9.452;2022-07-17T00:55:55;10.90;99.90
42489;DHT22;28118;52.388;9.452;2022-07-17T00:58:25;10.80;99.90
42489;DHT22;28118;52.388;9.452;2022-07-17T01:00:53;10.80;99.90
42489;DHT22;28118;52.388;9.452;2022-07-17T01:03:23;10.90;99.90
42489;DHT22;28118;52.388;9.452;2022-07-17T01:05:50;10.80;99.90
42489;DHT22;28118;52.388;9.452;2022-07-17T01:08:18;10.80;99.90
42489;DHT22;28118;52.388;9.452;2022-07-17T01:10:44;10.80;99.90
42489;DHT22;28118;52.388;9.452;2022-07-17T01:13:11;10.70;99.90
42489;DHT22;28118;52.388;9.452;2022-07-17T01:15:40;10.70;99.90
42489;DHT22;28118;52.388;9.452;2022-07-17T01:18:09;10.70;99.90
42489;DHT22;28118;52.388;9.452;2022-07-17T01:20:37;10.70;99.90
42489;DHT22;28118;52.388;9.452;2022-07-17T01:23:04;10.80;99.90
42489;DHT22;28118;52.388;9.452;2022-07-17T01:25:32;10.80;99.90
42489;DHT22;28118;52.388;9.452;2022-07-17T01:27:59;10.80;99.90
42489;DHT22;28118;52.388;9.452;2022-07-17T01:30:27;10.80;99.90
42489;DHT22;28118;52.388;9.452;2022-07-17T01:32:54;10.70;99.90
42489;DHT22;28118;52.388;9.452;2022-07-17T01:35:21;10.70;99.90
42489;DHT22;28118;52.388;9.452;2022-07-17T01:37:48;10.80;99.90
42489;DHT22;28118;52.388;9.452;2022-07-17T01:40:16;10.70;99.90
42489;DHT22;28118;52.388;9.452;2022-07-17T01:42:48;10.60;99.90
42489;DHT22;28118;52.388;9.452;2022-07-17T01:45:16;10.60;99.90
42489;DHT22;28118;52.388;9.452;2022-07-17T01:47:44;10.50;99.90
42489;DHT22;28118;52.388;9.452;2022-07-17T01:50:12;10.50;99.90
42489;DHT22;28118;52.388;9.452;2022-07-17T01:52:41;10.40;99.90
42489;DHT22;28118;52.388;9.452;2022-07-17T01:55:09;10.40;99.90
42489;DHT22;28118;52.388;9.452;2022-07-17T01:57:36;10.40;99.90
42489;DHT22;28118;52.388;9.452;2022-07-17T02:00:05;10.40;99.90
42489;DHT22;28118;52.388;9.452;2022-07-17T02:02:32;10.40;99.90
42489;DHT22;28118;52.388;9.452;2022-07-17T02:04:59;10.40;99.90
42489;DHT22;28118;52.388;9.452;2022-07-17T02:07:25;10.30;99.90
42489;DHT22;28118;52.388;9.452;2022-07-17T02:09:52;10.30;99.90
42489;DHT22;28118;52.388;9.452;2022-07-17T02:12:19;10.40;99.90
42489;DHT22;28118;52.388;9.452;2022-07-17T02:14:46;10.30;99.90
42489;DHT22;28118;52.388;9.452;2022-07-17T02:17:13;10.30;99.90
42489;DHT22;28118;52.388;9.452;2022-07-17T02:19:40;10.20;99.90
42489;DHT22;28118;52.388;9.452;2022-07-17T02:22:07;10.20;99.90
42489;DHT22;28118;52.388;9.452;2022-07-17T02:24:34;10.20;99.90
42489;DHT22;28118;52.388;9.452;2022-07-17T02:27:00;10.20;99.90
42489;DHT22;28118;52.388;9.452;2022-07-17T02:29:27;10.20;99.90
42489;DHT22;28118;52.388;9.452;2022-07-17T02:31:53;10.20;99.90
42489;DHT22;28118;52.388;9.452;2022-07-17T02:34:20;10.10;99.90
42489;DHT22;28118;52.388;9.452;2022-07-17T02:36:47;10.10;99.90
42489;DHT22;28118;52.388;9.452;2022-07-17T02:39:14;10.10;99.90
42489;DHT22;28118;52.388;9.452;2022-07-17T02:41:41;10.20;99.90
42489;DHT22;28118;52.388;9.452;2022-07-17T02:44:08;10.10;99.90
42489;DHT22;28118;52.388;9.452;2022-07-17T02:46:35;10.10;99.90
42489;DHT22;28118;52.388;9.452;2022-07-17T02:49:03;10.10;99.90
42489;DHT22;28118;52.388;9.452;2022-07-17T02:51:29;10.10;99.90
42489;DHT22;28118;52.388;9.452;2022-07-17T02:53:56;10.20;99.90
42489;DHT22;28118;52.388;9.452;2022-07-17T02:56:23;10.20;99.90
42489;DHT22;28118;52.388;9.452;2022-07-17T02:58:50;10.20;99.90
42489;DHT22;28118;52.388;9.452;2022-07-17T03:01:17;10.20;99.90
42489;DHT22;28118;52.388;9.452;2022-07-17T03:03:45;10.20;99.90
42489;DHT22;28118;52.388;9.452;2022-07-17T03:06:12;10.10;99.90
42489;DHT22;28118;52.388;9.452;2022-07-17T03:08:40;10.10;99.90
42489;DHT22;28118;52.388;9.452;2022-07-17T03:11:07;9.90;99.90
42489;DHT22;28118;52.388;9.452;2022-07-17T03:13:34;9.80;99.90
42489;DHT22;28118;52.388;9.452;2022-07-17T03:16:00;9.90;99.90
42489;DHT22;28118;52.388;9.452;2022-07-17T03:18:27;9.80;99.90
42489;DHT22;28118;52.388;9.452;2022-07-17T03:20:54;9.90;99.90
42489;DHT22;28118;52.388;9.452;2022-07-17T03:23:21;9.80;99.90
42489;DHT22;28118;52.388;9.452;2022-07-17T03:25:48;9.80;99.90
42489;DHT22;28118;52.388;9.452;2022-07-17T03:28:15;9.80;99.90
42489;DHT22;28118;52.388;9.452;2022-07-17T03:30:41;9.80;99.90
42489;DHT22;28118;52.388;9.452;2022-07-17T03:33:08;9.80;99.90
42489;DHT22;28118;52.388;9.452;2022-07-17T03:35:35;9.80;99.90
42489;DHT22;28118;52.388;9.452;2022-07-17T03:38:02;9.90;99.90
42489;DHT22;28118;52.388;9.452;2022-07-17T03:40:28;9.90;99.90
42489;DHT22;28118;52.388;9.452;2022-07-17T03:42:56;9.90;99.90
42489;DHT22;28118;52.388;9.452;2022-07-17T03:45:23;9.90;99.90
42489;DHT22;28118;52.388;9.452;2022-07-17T03:47:49;10.00;99.90
42489;DHT22;28118;52.388;9.452;2022-07-17T03:50:16;10.00;99.90
42489;DHT22;28118;52.388;9.452;2022-07-17T03:52:43;10.10;99.90
42489;DHT22;28118;52.388;9.452;2022-07-17T03:55:09;10.00;99.90
42489;DHT22;28118;52.388;9.452;2022-07-17T03:57:36;10.00;99.90
42489;DHT22;28118;52.388;9.452;2022-07-17T04:00:04;9.90;99.90
42489;DHT22;28118;52.388;9.452;2022-07-17T04:02:31;10.00;99.90
42489;DHT22;28118;52.388;9.452;2022-07-17T04:04:58;10.00;99.90
42489;DHT22;28118;52.388;9.452;2022-07-17T04:07:24;10.10;99.90
42489;DHT22;28118;52.388;9.452;2022-07-17T04:09:58;10.10;99.90
42489;DHT22;28118;52.388;9.452;2022-07-17T04:12:26;10.20;99.90
42489;DHT22;28118;52.388;9.452;2022-07-17T04:14:54;10.40;99.90
42489;DHT22;28118;52.388;9.452;2022-07-17T04:17:21;10.60;99.90
42489;DHT22;28118;52.388;9.452;2022-07-17T04:19:47;10.70;99.90
42489;DHT22;28118;52.388;9.452;2022-07-17T04:22:15;10.80;99.90
42489;DHT22;28118;52.388;9.452;2022-07-17T04:24:42;10.80;99.90
42489;DHT22;28118;52.388;9.452;2022-07-17T04:27:08;10.90;99.90
42489;DHT22;28118;52.388;9.452;2022-07-17T04:29:35;10.90;99.90
42489;DHT22;28118;52.388;9.452;2022-07-17T04:32:03;10.90;99.90
42489;DHT22;28118;52.388;9.452;2022-07-17T04:34:31;10.90;99.90
42489;DHT22;28118;52.388;9.452;2022-07-17T04:37:00;10.90;99.90
42489;DHT22;28118;52.388;9.452;2022-07-17T04:39:27;11.00;99.90
42489;DHT22;28118;52.388;9.452;2022-07-17T04:41:54;11.00;99.90
42489;DHT22;28118;52.388;9.452;2022-07-17T04:44:20;11.10;99.90
42489;DHT22;28118;52.388;9.452;2022-07-17T04:46:47;11.10;99.90
42489;DHT22;28118;52.388;9.452;2022-07-17T04:49:14;11.20;99.90
42489;DHT22;28118;52.388;9.452;2022-07-17T04:51:41;11.20;99.90
42489;DHT22;28118;52.388;9.452;2022-07-17T04:54:07;11.10;99.90
42489;DHT22;28118;52.388;9.452;2022-07-17T04:56:35;11.10;99.90
42489;DHT22;28118;52.388;9.452;2022-07-17T04:59:01;11.10;99.90
42489;DHT22;28118;52.388;9.452;2022-07-17T05:01:28;11.10;99.90
42489;DHT22;28118;52.388;9.452;2022-07-17T05:03:56;11.10;99.90
42489;DHT22;28118;52.388;9.452;2022-07-17T05:06:23;11.10;99.90
42489;DHT22;28118;52.388;9.452;2022-07-17T05:08:49;11.10;99.90
42489;DHT22;28118;52.388;9.452;2022-07-17T05:11:16;11.10;99.90
42489;DHT22;28118;52.388;9.452;2022-07-17T05:13:43;11.10;99.90
42489;DHT22;28118;52.388;9.452;2022-07-17T05:16:09;11.10;99.90
42489;DHT22;28118;52.388;9.452;2022-07-17T05:18:37;11.30;99.90
42489;DHT22;28118;52.388;9.452;2022-07-17T05:21:03;11.40;99.90
42489;DHT22;28118;52.388;9.452;2022-07-17T05:23:30;11.50;99.90
42489;DHT22;28118;52.388;9.452;2022-07-17T05:25:57;11.50;99.90
42489;DHT22;28118;52.388;9.452;2022-07-17T05:28:24;11.60;99.90
42489;DHT22;28118;52.388;9.452;2022-07-17T05:30:50;11.60;99.90
42489;DHT22;28118;52.388;9.452;2022-07-17T05:33:17;11.70;99.90
42489;DHT22;28118;52.388;9.452;2022-07-17T05:35:44;11.70;99.90
42489;DHT22;28118;52.388;9.452;2022-07-17T05:38:11;11.80;99.90
42489;DHT22;28118;52.388;9.452;2022-07-17T05:40:37;11.80;99.90
42489;DHT22;28118;52.388;9.452;2022-07-17T05:43:04;11.80;99.90
42489;DHT22;28118;52.388;9.452;2022-07-17T05:45:31;11.90;99.90
42489;DHT22;28118;52.388;9.452;2022-07-17T05:47:57;12.00;99.90
42489;DHT22;28118;52.388;9.452;2022-07-17T05:50:24;12.30;99.90
42489;DHT22;28118;52.388;9.452;2022-07-17T05:52:51;12.50;99.90
42489;DHT22;28118;52.388;9.452;2022-07-17T05:55:18;12.60;99.90
42489;DHT22;28118;52.388;9.452;2022-07-17T05:57:45;12.70;99.90
42489;DHT22;28118;52.388;9.452;2022-07-17T06:00:12;12.80;99.90
42489;DHT22;28118;52.388;9.452;2022-07-17T06:02:38;12.90;99.90
42489;DHT22;28118;52.388;9.452;2022-07-17T06:05:05;13.00;99.90
42489;DHT22;28118;52.388;9.452;2022-07-17T06:07:32;13.10;99.90
42489;DHT22;28118;52.388;9.452;2022-07-17T06:09:59;13.20;99.90
42489;DHT22;28118;52.388;9.452;2022-07-17T06:12:26;13.40;99.90
42489;DHT22;28118;52.388;9.452;2022-07-17T06:14:53;13.50;99.90
42489;DHT22;28118;52.388;9.452;2022-07-17T06:17:19;13.60;99.90
42489;DHT22;28118;52.388;9.452;2022-07-17T06:19:46;13.80;99.90
42489;DHT22;28118;52.388;9.452;2022-07-17T06:22:13;14.10;99.90
42489;DHT22;28118;52.388;9.452;2022-07-17T06:24:39;14.10;99.90
42489;DHT22;28118;52.388;9.452;2022-07-17T06:27:06;14.20;99.90
42489;DHT22;28118;52.388;9.452;2022-07-17T06:29:33;14.20;99.90
42489;DHT22;28118;52.388;9.452;2022-07-17T06:31:59;14.30;99.90
42489;DHT22;28118;52.388;9.452;2022-07-17T06:34:26;14.40;99.90
42489;DHT22;28118;52.388;9.452;2022-07-17T06:36:53;14.60;99.90
42489;DHT22;28118;52.388;9.452;2022-07-17T06:39:19;14.80;99.90
42489;DHT22;28118;52.388;9.452;2022-07-17T06:41:46;14.80;99.90
42489;DHT22;28118;52.388;9.452;2022-07-17T06:44:13;15.00;99.90
42489;DHT22;28118;52.388;9.452;2022-07-17T06:46:40;15.10;99.90
42489;DHT22;28118;52.388;9.452;2022-07-17T06:49:06;15.20;99.90
42489;DHT22;28118;52.388;9.452;2022-07-17T06:51:33;15.30;99.90
42489;DHT22;28118;52.388;9.452;2022-07-17T06:54:00;15.30;99.90
42489;DHT22;28118;52.388;9.452;2022-07-17T06:56:27;15.30;99.90
42489;DHT22;28118;52.388;9.452;2022-07-17T06:58:53;15.40;99.90
42489;DHT22;28118;52.388;9.452;2022-07-17T07:01:20;15.50;99.90
42489;DHT22;28118;52.388;9.452;2022-07-17T07:03:47;15.50;99.90
42489;DHT22;28118;52.388;9.452;2022-07-17T07:06:14;15.50;99.90
42489;DHT22;28118;52.388;9.452;2022-07-17T07:08:40;15.60;99.90
42489;DHT22;28118;52.388;9.452;2022-07-17T07:11:07;15.80;99.90
42489;DHT22;28118;52.388;9.452;2022-07-17T07:13:34;15.90;99.90
42489;DHT22;28118;52.388;9.452;2022-07-17T07:16:00;15.90;99.90
42489;DHT22;28118;52.388;9.452;2022-07-17T07:18:28;15.90;99.90
42489;DHT22;28118;52.388;9.452;2022-07-17T07:20:55;15.80;99.90
42489;DHT22;28118;52.388;9.452;2022-07-17T07:23:22;15.70;99.90
42489;DHT22;28118;52.388;9.452;2022-07-17T07:25:48;15.80;99.90
42489;DHT22;28118;52.388;9.452;2022-07-17T07:28:15;15.80;99.90
42489;DHT22;28118;52.388;9.452;2022-07-17T07:30:43;15.80;99.90
42489;DHT22;28118;52.388;9.452;2022-07-17T07:33:10;15.80;99.90
42489;DHT22;28118;52.388;9.452;2022-07-17T07:35:37;15.90;99.90
42489;DHT22;28118;52.388;9.452;2022-07-17T07:38:04;15.90;99.90
42489;DHT22;28118;52.388;9.452;2022-07-17T07:40:31;16.00;99.90
42489;DHT22;28118;52.388;9.452;2022-07-17T07:42:58;16.10;99.90
42489;DHT22;28118;52.388;9.452;2022-07-17T07:45:24;16.30;99.90
42489;DHT22;28118;52.388;9.452;2022-07-17T07:47:52;16.60;99.90
42489;DHT22;28118;52.388;9.452;2022-07-17T07:50:21;16.70;99.90
42489;DHT22;28118;52.388;9.452;2022-07-17T07:52:48;16.90;99.90
42489;DHT22;28118;52.388;9.452;2022-07-17T07:55:15;16.90;99.90
42489;DHT22;28118;52.388;9.452;2022-07-17T07:57:48;16.80;99.90
42489;DHT22;28118;52.388;9.452;2022-07-17T08:00:16;17.10;99.90
42489;DHT22;28118;52.388;9.452;2022-07-17T08:02:43;17.10;99.90
42489;DHT22;28118;52.388;9.452;2022-07-17T08:05:09;17.30;99.90
42489;DHT22;28118;52.388;9.452;2022-07-17T08:07:36;17.40;99.90
42489;DHT22;28118;52.388;9.452;2022-07-17T08:10:04;17.50;99.90
42489;DHT22;28118;52.388;9.452;2022-07-17T08:12:31;17.60;99.90
42489;DHT22;28118;52.388;9.452;2022-07-17T08:15:12;17.80;99.90
42489;DHT22;28118;52.388;9.452;2022-07-17T08:17:38;18.10;99.90
42489;DHT22;28118;52.388;9.452;2022-07-17T08:20:05;18.40;99.90
42489;DHT22;28118;52.388;9.452;2022-07-17T08:22:44;18.20;99.90
42489;DHT22;28118;52.388;9.452;2022-07-17T08:25:32;18.20;99.90
42489;DHT22;28118;52.388;9.452;2022-07-17T08:27:59;17.50;99.90
42489;DHT22;28118;52.388;9.452;2022-07-17T08:30:26;17.30;99.90
42489;DHT22;28118;52.388;9.452;2022-07-17T08:32:53;17.30;99.90
42489;DHT22;28118;52.388;9.452;2022-07-17T08:35:20;17.40;99.90
42489;DHT22;28118;52.388;9.452;2022-07-17T08:37:50;17.20;99.90
42489;DHT22;28118;52.388;9.452;2022-07-17T08:40:24;17.30;99.90
42489;DHT22;28118;52.388;9.452;2022-07-17T08:42:53;17.60;99.90
42489;DHT22;28118;52.388;9.452;2022-07-17T08:45:21;17.80;99.90
42489;DHT22;28118;52.388;9.452;2022-07-17T08:47:51;18.00;99.90
42489;DHT22;28118;52.388;9.452;2022-07-17T08:50:28;17.70;99.90
42489;DHT22;28118;52.388;9.452;2022-07-17T08:52:56;17.60;99.90
42489;DHT22;28118;52.388;9.452;2022-07-17T08:55:23;18.00;99.90
42489;DHT22;28118;52.388;9.452;2022-07-17T08:57:50;18.40;99.90
42489;DHT22;28118;52.388;9.452;2022-07-17T09:00:19;18.60;99.90
42489;DHT22;28118;52.388;9.452;2022-07-17T09:03:00;18.50;99.90
42489;DHT22;28118;52.388;9.452;2022-07-17T09:05:30;18.30;99.90
42489;DHT22;28118;52.388;9.452;2022-07-17T09:07:58;18.50;99.90
42489;DHT22;28118;52.388;9.452;2022-07-17T09:10:40;18.50;99.90
42489;DHT22;28118;52.388;9.452;2022-07-17T09:13:25;18.70;99.90
42489;DHT22;28118;52.388;9.452;2022-07-17T09:15:55;18.70;99.90
42489;DHT22;28118;52.388;9.452;2022-07-17T09:18:22;19.00;99.90
42489;DHT22;28118;52.388;9.452;2022-07-17T09:20:55;18.80;99.90
42489;DHT22;28118;52.388;9.452;2022-07-17T09:23:24;19.00;99.90
42489;DHT22;28118;52.388;9.452;2022-07-17T09:25:53;19.20;99.90
42489;DHT22;28118;52.388;9.452;2022-07-17T09:28:21;19.40;99.90
42489;DHT22;28118;52.388;9.452;2022-07-17T09:30:51;19.40;99.90
42489;DHT22;28118;52.388;9.452;2022-07-17T09:33:27;19.40;99.90
42489;DHT22;28118;52.388;9.452;2022-07-17T09:35:56;19.30;99.90
42489;DHT22;28118;52.388;9.452;2022-07-17T09:38:33;19.50;99.90
42489;DHT22;28118;52.388;9.452;2022-07-17T09:41:16;20.00;99.90
42489;DHT22;28118;52.388;9.452;2022-07-17T09:43:44;20.00;99.90
42489;DHT22;28118;52.388;9.452;2022-07-17T09:46:21;19.90;99.20
42489;DHT22;28118;52.388;9.452;2022-07-17T09:48:53;19.80;99.80
42489;DHT22;28118;52.388;9.452;2022-07-17T09:51:32;19.50;99.90
42489;DHT22;28118;52.388;9.452;2022-07-17T09:54:00;19.90;99.90
42489;DHT22;28118;52.388;9.452;2022-07-17T09:56:31;20.00;99.30
42489;DHT22;28118;52.388;9.452;2022-07-17T09:59:09;20.10;99.40
42489;DHT22;28118;52.388;9.452;2022-07-17T10:01:38;19.80;99.50
42489;DHT22;28118;52.388;9.452;2022-07-17T10:04:05;19.50;99.30
42489;DHT22;28118;52.388;9.452;2022-07-17T10:06:32;19.40;99.00
42489;DHT22;28118;52.388;9.452;2022-07-17T10:09:00;19.50;99.20
42489;DHT22;28118;52.388;9.452;2022-07-17T10:11:28;19.40;99.50
42489;DHT22;28118;52.388;9.452;2022-07-17T10:14:00;19.30;99.90
42489;DHT22;28118;52.388;9.452;2022-07-17T10:16:30;19.30;99.60
42489;DHT22;28118;52.388;9.452;2022-07-17T10:18:58;19.50;99.70
42489;DHT22;28118;52.388;9.452;2022-07-17T10:21:27;19.60;99.40
42489;DHT22;28118;52.388;9.452;2022-07-17T10:29:07;19.50;98.80
42489;DHT22;28118;52.388;9.452;2022-07-17T10:31:35;19.80;99.20
42489;DHT22;28118;52.388;9.452;2022-07-17T10:34:04;20.00;98.30
42489;DHT22;28118;52.388;9.452;2022-07-17T10:36:36;19.80;98.60
42489;DHT22;28118;52.388;9.452;2022-07-17T10:39:18;20.10;98.40
42489;DHT22;28118;52.388;9.452;2022-07-17T10:41:59;19.80;98.20
42489;DHT22;28118;52.388;9.452;2022-07-17T10:44:30;19.70;98.10
42489;DHT22;28118;52.388;9.452;2022-07-17T10:46:58;20.00;98.00
42489;DHT22;28118;52.388;9.452;2022-07-17T10:49:26;19.90;98.10
42489;DHT22;28118;52.388;9.452;2022-07-17T10:51:53;20.00;98.80
42489;DHT22;28118;52.388;9.452;2022-07-17T10:54:20;20.20;98.60
42489;DHT22;28118;52.388;9.452;2022-07-17T10:57:00;20.30;98.40
42489;DHT22;28118;52.388;9.452;2022-07-17T10:59:29;20.50;97.80
42489;DHT22;28118;52.388;9.452;2022-07-17T11:01:57;20.30;98.00
42489;DHT22;28118;52.388;9.452;2022-07-17T11:04:24;20.30;97.10
42489;DHT22;28118;52.388;9.452;2022-07-17T11:06:51;20.20;97.00
42489;DHT22;28118;52.388;9.452;2022-07-17T11:09:18;20.40;97.30
42489;DHT22;28118;52.388;9.452;2022-07-17T11:11:50;20.60;96.90
42489;DHT22;28118;52.388;9.452;2022-07-17T11:19:28;20.80;95.70
42489;DHT22;28118;52.388;9.452;2022-07-17T11:21:56;20.80;95.20
42489;DHT22;28118;52.388;9.452;2022-07-17T11:27:12;21.30;95.90
42489;DHT22;28118;52.388;9.452;2022-07-17T11:29:44;21.70;94.60
42489;DHT22;28118;52.388;9.452;2022-07-17T11:32:11;21.70;94.80
42489;DHT22;28118;52.388;9.452;2022-07-17T11:34:37;21.70;96.20
42489;DHT22;28118;52.388;9.452;2022-07-17T11:37:07;22.00;94.60
42489;DHT22;28118;52.388;9.452;2022-07-17T11:42:11;22.00;93.10
42489;DHT22;28118;52.388;9.452;2022-07-17T11:44:38;22.30;93.30
42489;DHT22;28118;52.388;9.452;2022-07-17T11:47:06;22.90;92.30
42489;DHT22;28118;52.388;9.452;2022-07-17T11:49:35;23.00;91.60
42489;DHT22;28118;52.388;9.452;2022-07-17T11:52:13;22.80;92.00
42489;DHT22;28118;52.388;9.452;2022-07-17T11:54:58;22.70;91.50
42489;DHT22;28118;52.388;9.452;2022-07-17T11:57:26;22.90;90.90
42489;DHT22;28118;52.388;9.452;2022-07-17T12:00:05;23.10;91.50
42489;DHT22;28118;52.388;9.452;2022-07-17T12:02:32;23.30;91.10
42489;DHT22;28118;52.388;9.452;2022-07-17T12:05:00;23.40;91.30
42489;DHT22;28118;52.388;9.452;2022-07-17T12:07:47;23.60;90.60
42489;DHT22;28118;52.388;9.452;2022-07-17T12:10:20;23.90;89.90
42489;DHT22;28118;52.388;9.452;2022-07-17T12:12:56;24.20;89.20
42489;DHT22;28118;52.388;9.452;2022-07-17T12:15:40;23.90;87.20
42489;DHT22;28118;52.388;9.452;2022-07-17T12:18:26;23.80;87.20
42489;DHT22;28118;52.388;9.452;2022-07-17T12:20:57;24.10;88.40
42489;DHT22;28118;52.388;9.452;2022-07-17T12:26:13;24.60;84.20
42489;DHT22;28118;52.388;9.452;2022-07-17T12:28:50;23.80;84.70
42489;DHT22;28118;52.388;9.452;2022-07-17T12:31:17;24.60;85.20
42489;DHT22;28118;52.388;9.452;2022-07-17T12:33:46;24.20;83.70
42489;DHT22;28118;52.388;9.452;2022-07-17T12:36:13;24.50;87.60
42489;DHT22;28118;52.388;9.452;2022-07-17T12:38:40;25.10;86.50
42489;DHT22;28118;52.388;9.452;2022-07-17T12:41:07;25.70;83.70
42489;DHT22;28118;52.388;9.452;2022-07-17T12:43:34;25.60;79.60
42489;DHT22;28118;52.388;9.452;2022-07-17T12:46:00;25.00;79.20
42489;DHT22;28118;52.388;9.452;2022-07-17T12:48:38;25.20;79.90
42489;DHT22;28118;52.388;9.452;2022-07-17T12:51:07;25.00;77.40
42489;DHT22;28118;52.388;9.452;2022-07-17T12:53:34;25.00;78.80
42489;DHT22;28118;52.388;9.452;2022-07-17T12:56:03;25.70;77.80
42489;DHT22;28118;52.388;9.452;2022-07-17T12:58:30;25.60;75.00
42489;DHT22;28118;52.388;9.452;2022-07-17T13:00:57;25.60;76.40
42489;DHT22;28118;52.388;9.452;2022-07-17T13:03:24;26.00;72.50
42489;DHT22;28118;52.388;9.452;2022-07-17T13:05:51;25.50;72.50
42489;DHT22;28118;52.388;9.452;2022-07-17T13:08:18;26.10;71.30
42489;DHT22;28118;52.388;9.452;2022-07-17T13:10:45;26.20;68.10
42489;DHT22;28118;52.388;9.452;2022-07-17T13:13:12;26.20;67.40
42489;DHT22;28118;52.388;9.452;2022-07-17T13:15:41;26.40;63.70
42489;DHT22;28118;52.388;9.452;2022-07-17T13:18:10;26.40;63.90
42489;DHT22;28118;52.388;9.452;2022-07-17T13:20:40;26.70;64.40
42489;DHT22;28118;52.388;9.452;2022-07-17T13:23:08;26.90;63.70
42489;DHT22;28118;52.388;9.452;2022-07-17T13:25:35;27.20;62.30
42489;DHT22;28118;52.388;9.452;2022-07-17T13:28:02;27.00;62.00
42489;DHT22;28118;52.388;9.452;2022-07-17T13:30:29;26.60;62.70
42489;DHT22;28118;52.388;9.452;2022-07-17T13:32:56;26.60;62.10
42489;DHT22;28118;52.388;9.452;2022-07-17T13:35:24;26.70;62.60
42489;DHT22;28118;52.388;9.452;2022-07-17T13:37:51;26.60;62.70
42489;DHT22;28118;52.388;9.452;2022-07-17T13:40:17;27.10;64.00
42489;DHT22;28118;52.388;9.452;2022-07-17T13:42:46;27.40;62.80
42489;DHT22;28118;52.388;9.452;2022-07-17T13:45:12;26.60;61.90
42489;DHT22;28118;52.388;9.452;2022-07-17T13:47:39;26.40;62.10
42489;DHT22;28118;52.388;9.452;2022-07-17T13:50:06;26.40;61.90
42489;DHT22;28118;52.388;9.452;2022-07-17T13:52:40;26.70;61.20
42489;DHT22;28118;52.388;9.452;2022-07-17T13:55:08;27.00;61.00
42489;DHT22;28118;52.388;9.452;2022-07-17T13:57:56;27.10;61.10
42489;DHT22;28118;52.388;9.452;2022-07-17T14:00:23;27.50;60.70
42489;DHT22;28118;52.388;9.452;2022-07-17T14:02:50;27.60;60.10
42489;DHT22;28118;52.388;9.452;2022-07-17T14:05:17;27.40;59.00
42489;DHT22;28118;52.388;9.452;2022-07-17T14:07:45;27.40;57.30
42489;DHT22;28118;52.388;9.452;2022-07-17T14:10:12;26.80;57.60
42489;DHT22;28118;52.388;9.452;2022-07-17T14:12:39;27.00;58.10
42489;DHT22;28118;52.388;9.452;2022-07-17T14:15:06;27.80;59.20
42489;DHT22;28118;52.388;9.452;2022-07-17T14:17:37;28.10;57.60
42489;DHT22;28118;52.388;9.452;2022-07-17T14:20:04;28.20;57.30
42489;DHT22;28118;52.388;9.452;2022-07-17T14:22:32;28.40;57.10
42489;DHT22;28118;52.388;9.452;2022-07-17T14:24:59;27.90;57.40
42489;DHT22;28118;52.388;9.452;2022-07-17T14:27:25;28.10;56.50
42489;DHT22;28118;52.388;9.452;2022-07-17T14:29:52;28.40;57.90
42489;DHT22;28118;52.388;9.452;2022-07-17T14:32:19;28.70;57.60
42489;DHT22;28118;52.388;9.452;2022-07-17T14:34:45;28.80;58.30
42489;DHT22;28118;52.388;9.452;2022-07-17T14:37:12;28.90;56.60
42489;DHT22;28118;52.388;9.452;2022-07-17T14:39:39;29.10;56.20
42489;DHT22;28118;52.388;9.452;2022-07-17T14:42:06;29.00;56.70
42489;DHT22;28118;52.388;9.452;2022-07-17T14:44:32;29.10;55.90
42489;DHT22;28118;52.388;9.452;2022-07-17T14:47:00;29.40;54.80
42489;DHT22;28118;52.388;9.452;2022-07-17T14:49:28;29.90;54.80
42489;DHT22;28118;52.388;9.452;2022-07-17T14:51:55;29.50;55.00
42489;DHT22;28118;52.388;9.452;2022-07-17T14:54:22;31.00;55.20
42489;DHT22;28118;52.388;9.452;2022-07-17T14:56:49;33.80;53.40
42489;DHT22;28118;52.388;9.452;2022-07-17T14:59:15;36.60;49.50
42489;DHT22;28118;52.388;9.452;2022-07-17T15:01:42;34.70;48.00
42489;DHT22;28118;52.388;9.452;2022-07-17T15:04:10;38.00;45.70
42489;DHT22;28118;52.388;9.452;2022-07-17T15:06:40;39.30;44.40
42489;DHT22;28118;52.388;9.452;2022-07-17T15:09:08;39.50;42.90
42489;DHT22;28118;52.388;9.452;2022-07-17T15:11:35;40.70;41.80
42489;DHT22;28118;52.388;9.452;2022-07-17T15:14:01;40.90;40.80
42489;DHT22;28118;52.388;9.452;2022-07-17T15:16:29;42.20;40.40
42489;DHT22;28118;52.388;9.452;2022-07-17T15:18:57;42.60;39.00
42489;DHT22;28118;52.388;9.452;2022-07-17T15:21:24;42.30;38.90
42489;DHT22;28118;52.388;9.452;2022-07-17T15:24:10;41.70;38.20
42489;DHT22;28118;52.388;9.452;2022-07-17T15:26:37;40.60;39.20
42489;DHT22;28118;52.388;9.452;2022-07-17T15:29:12;40.50;39.00
42489;DHT22;28118;52.388;9.452;2022-07-17T15:31:38;41.00;38.60
42489;DHT22;28118;52.388;9.452;2022-07-17T15:34:05;41.10;38.00
42489;DHT22;28118;52.388;9.452;2022-07-17T15:36:32;40.90;38.50
42489;DHT22;28118;52.388;9.452;2022-07-17T15:38:59;39.70;38.40
42489;DHT22;28118;52.388;9.452;2022-07-17T15:41:26;39.00;38.40
42489;DHT22;28118;52.388;9.452;2022-07-17T15:43:53;37.60;39.10
42489;DHT22;28118;52.388;9.452;2022-07-17T15:46:20;38.00;39.50
42489;DHT22;28118;52.388;9.452;2022-07-17T15:48:48;38.80;39.30
42489;DHT22;28118;52.388;9.452;2022-07-17T15:51:14;39.20;38.70
42489;DHT22;28118;52.388;9.452;2022-07-17T15:53:41;38.70;39.10
42489;DHT22;28118;52.388;9.452;2022-07-17T15:56:08;37.50;39.30
42489;DHT22;28118;52.388;9.452;2022-07-17T15:58:35;36.50;39.80